createdAt,value
2023-01-09T00:00:59.875Z,56.83
2023-01-09T00:03:31.857Z,56.33
2023-01-09T00:06:03.944Z,54.75
2023-01-09T00:08:35.963Z,53.33
2023-01-09T00:11:08.513Z,53.58
2023-01-09T00:13:40.535Z,62.05
2023-01-09T00:16:12.513Z,59.65
2023-01-09T00:18:44.749Z,54.50
2023-01-09T00:21:17.309Z,55.05
2023-01-09T00:23:49.634Z,55.15
2023-01-09T00:26:22.089Z,56.53
2023-01-09T00:28:54.562Z,58.53
2023-01-09T00:31:26.517Z,54.65
2023-01-09T00:33:58.461Z,54.97
2023-01-09T00:36:30.433Z,55.80
2023-01-09T00:39:02.515Z,51.15
2023-01-09T00:41:46.923Z,60.58
2023-01-09T00:44:23.901Z,53.88
2023-01-09T00:47:03.195Z,59.42
2023-01-09T00:49:37.114Z,55.33
2023-01-09T00:52:11.361Z,53.03
2023-01-09T00:54:44.050Z,54.45
2023-01-09T00:57:16.245Z,54.35
2023-01-09T00:59:48.225Z,51.63
2023-01-09T01:02:20.533Z,55.42
2023-01-09T01:05:11.182Z,50.38
2023-01-09T01:07:43.579Z,45.78
2023-01-09T01:10:20.557Z,47.83
2023-01-09T01:12:53.090Z,49.47
2023-01-09T01:15:26.998Z,51.08
2023-01-09T01:17:58.930Z,51.22
2023-01-09T01:20:30.853Z,51.58
2023-01-09T01:23:02.737Z,47.15
2023-01-09T01:25:37.661Z,46.40
2023-01-09T01:28:10.782Z,44.97
2023-01-09T01:30:43.738Z,47.65
2023-01-09T01:33:15.671Z,48.97
2023-01-09T01:35:47.536Z,52.30
2023-01-09T01:38:19.419Z,48.85
2023-01-09T01:40:55.057Z,48.17
2023-01-09T01:43:26.964Z,47.95
2023-01-09T01:45:59.067Z,53.25
2023-01-09T01:48:32.324Z,44.38
2023-01-09T01:51:06.990Z,48.03
2023-01-09T01:53:45.726Z,48.63
2023-01-09T01:56:26.060Z,43.35
2023-01-09T01:59:01.411Z,44.05
2023-01-09T02:01:34.466Z,44.95
2023-01-09T02:04:06.512Z,51.33
2023-01-09T02:06:39.311Z,52.25
2023-01-09T02:09:13.695Z,49.30
2023-01-09T02:11:47.047Z,44.67
2023-01-09T02:14:22.223Z,51.78
2023-01-09T02:17:26.621Z,46.95
2023-01-09T02:20:20.260Z,47.08
2023-01-09T02:23:13.855Z,47.72
2023-01-09T02:26:21.215Z,46.28
2023-01-09T02:28:58.810Z,52.80
2023-01-09T02:31:57.768Z,51.67
2023-01-09T02:34:41.624Z,46.88
2023-01-09T02:37:41.736Z,45.88
2023-01-09T02:40:21.730Z,45.30
2023-01-09T02:42:55.891Z,48.35
2023-01-09T02:45:27.830Z,52.28
2023-01-09T02:47:59.804Z,46.28
2023-01-09T02:50:51.110Z,48.47
2023-01-09T02:53:51.988Z,43.90
2023-01-09T02:56:45.470Z,56.75
2023-01-09T02:59:54.017Z,50.22
2023-01-09T03:02:42.477Z,52.38
2023-01-09T03:05:34.710Z,50.47
2023-01-09T03:08:16.164Z,56.30
2023-01-09T03:11:09.269Z,49.70
2023-01-09T03:13:50.937Z,46.08
2023-01-09T03:16:33.224Z,59.13
2023-01-09T03:19:10.927Z,57.85
2023-01-09T03:21:45.171Z,50.05
2023-01-09T03:24:17.139Z,52.22
2023-01-09T03:26:49.336Z,57.30
2023-01-09T03:29:22.118Z,52.95
2023-01-09T03:31:54.090Z,58.65
2023-01-09T03:34:25.972Z,52.15
2023-01-09T03:36:57.875Z,47.42
2023-01-09T03:39:29.801Z,56.40
2023-01-09T03:42:01.786Z,51.22
2023-01-09T03:44:33.651Z,56.55
2023-01-09T03:47:05.541Z,63.92
2023-01-09T03:49:37.406Z,66.07
2023-01-09T03:52:09.356Z,54.60
2023-01-09T03:54:41.323Z,59.50
2023-01-09T03:57:13.868Z,56.53
2023-01-09T03:59:45.819Z,54.75
2023-01-09T04:02:18.497Z,50.80
2023-01-09T04:04:50.426Z,59.28
2023-01-09T04:07:22.361Z,59.10
2023-01-09T04:09:54.367Z,54.38
2023-01-09T04:12:26.313Z,53.90
2023-01-09T04:14:58.478Z,52.00
2023-01-09T04:17:30.486Z,46.78
2023-01-09T04:20:02.539Z,51.90
2023-01-09T04:22:34.521Z,53.78
2023-01-09T04:25:06.939Z,52.72
2023-01-09T04:27:39.138Z,47.45
2023-01-09T04:30:11.669Z,54.55
2023-01-09T04:32:43.710Z,61.63
2023-01-09T04:35:15.649Z,49.10
2023-01-09T04:37:47.885Z,47.40
2023-01-09T04:40:20.097Z,47.80
2023-01-09T04:42:52.189Z,45.75
2023-01-09T04:45:24.137Z,48.88
2023-01-09T04:47:56.089Z,41.17
2023-01-09T04:50:28.043Z,46.90
2023-01-09T04:53:00.032Z,47.38
2023-01-09T04:55:32.117Z,38.70
2023-01-09T04:58:04.085Z,40.45
2023-01-09T05:00:36.101Z,40.17
2023-01-09T05:03:07.972Z,38.65
2023-01-09T05:05:39.797Z,40.20
2023-01-09T05:08:11.747Z,37.75
2023-01-09T05:10:43.689Z,35.95
2023-01-09T05:13:15.666Z,36.70
2023-01-09T05:15:47.607Z,36.47
2023-01-09T05:18:19.684Z,35.22
2023-01-09T05:20:51.711Z,39.20
2023-01-09T05:23:23.836Z,33.40
2023-01-09T05:25:55.791Z,35.97
2023-01-09T05:28:27.716Z,35.10
2023-01-09T05:30:59.713Z,36.78
2023-01-09T05:33:31.684Z,39.08
2023-01-09T05:36:03.605Z,36.45
2023-01-09T05:38:35.613Z,35.05
2023-01-09T05:41:07.941Z,34.90
2023-01-09T05:43:39.867Z,35.40
2023-01-09T05:46:11.873Z,36.22
2023-01-09T05:48:44.813Z,39.53
2023-01-09T05:51:16.707Z,35.45
2023-01-09T05:53:48.918Z,35.80
2023-01-09T05:56:20.789Z,35.80
2023-01-09T05:58:52.723Z,32.05
2023-01-09T06:01:24.671Z,34.58
2023-01-09T06:03:56.620Z,36.35
2023-01-09T06:06:29.277Z,35.88
2023-01-09T06:09:01.283Z,35.00
2023-01-09T06:11:36.154Z,33.63
2023-01-09T06:14:11.107Z,35.45
2023-01-09T06:16:43.066Z,34.63
2023-01-09T06:19:15.245Z,37.90
2023-01-09T06:21:47.338Z,33.97
2023-01-09T06:24:19.445Z,35.03
2023-01-09T06:26:51.359Z,36.03
2023-01-09T06:29:23.904Z,37.42
2023-01-09T06:31:55.891Z,36.47
2023-01-09T06:34:27.887Z,33.15
2023-01-09T06:37:00.005Z,37.25
2023-01-09T06:39:32.008Z,38.63
2023-01-09T06:42:04.160Z,38.55
2023-01-09T06:44:37.138Z,35.90
2023-01-09T06:47:09.198Z,36.40
2023-01-09T06:49:41.148Z,37.55
2023-01-09T06:52:13.094Z,37.25
2023-01-09T06:54:45.025Z,37.13
2023-01-09T06:57:16.973Z,35.58
2023-01-09T06:59:48.941Z,36.78
2023-01-09T07:02:22.462Z,38.40
2023-01-09T07:04:54.437Z,40.00
2023-01-09T07:07:26.465Z,35.38
2023-01-09T07:09:58.427Z,37.90
2023-01-09T07:12:33.350Z,35.72
2023-01-09T07:15:05.902Z,35.20
2023-01-09T07:17:37.851Z,36.47
2023-01-09T07:20:10.582Z,37.50
2023-01-09T07:22:42.521Z,32.35
2023-01-09T07:25:14.557Z,34.75
2023-01-09T07:27:46.558Z,33.97
2023-01-09T07:30:18.631Z,37.65
2023-01-09T07:32:50.487Z,38.58
2023-01-09T07:35:22.341Z,42.03
2023-01-09T07:37:54.235Z,35.88
2023-01-09T07:40:27.338Z,36.88
2023-01-09T07:42:59.188Z,30.85
2023-01-09T07:45:31.115Z,35.35
2023-01-09T07:48:02.942Z,32.67
2023-01-09T07:50:35.001Z,33.30
2023-01-09T07:53:06.938Z,37.47
2023-01-09T07:55:39.263Z,38.88
2023-01-09T07:58:11.246Z,35.90
2023-01-09T08:00:43.181Z,39.13
2023-01-09T08:03:15.162Z,37.80
2023-01-09T08:05:47.106Z,36.50
2023-01-09T08:08:19.078Z,32.97
2023-01-09T08:10:51.427Z,32.38
2023-01-09T08:13:23.440Z,32.53
2023-01-09T08:15:55.467Z,33.35
2023-01-09T08:18:27.560Z,32.65
2023-01-09T08:20:59.626Z,35.35
2023-01-09T08:23:31.590Z,33.85
2023-01-09T08:26:04.556Z,32.40
2023-01-09T08:28:36.705Z,33.40
2023-01-09T08:31:08.959Z,33.15
2023-01-09T08:33:40.987Z,32.78
2023-01-09T08:36:13.003Z,33.72
2023-01-09T08:38:44.877Z,35.33
2023-01-09T08:41:35.791Z,44.30
2023-01-09T08:47:07.126Z,35.23
2023-01-09T08:49:39.815Z,38.92
2023-01-09T08:52:12.591Z,37.75
2023-01-09T08:54:44.533Z,46.38
2023-01-09T08:57:16.626Z,32.05
2023-01-09T08:59:48.899Z,32.17
2023-01-09T09:02:20.908Z,33.05
2023-01-09T09:04:53.736Z,33.17
2023-01-09T09:07:28.690Z,30.63
2023-01-09T09:10:00.617Z,29.33
2023-01-09T09:12:32.494Z,31.48
2023-01-09T09:15:13.691Z,32.50
2023-01-09T09:17:45.983Z,34.20
2023-01-09T09:20:17.986Z,34.70
2023-01-09T09:22:50.604Z,36.90
2023-01-09T09:25:23.116Z,36.17
2023-01-09T09:27:56.698Z,29.85
2023-01-09T09:30:28.823Z,31.80
2023-01-09T09:33:03.358Z,36.78
2023-01-09T09:35:35.571Z,32.00
2023-01-09T09:38:07.526Z,32.13
2023-01-09T09:41:39.661Z,30.75
2023-01-09T09:44:53.430Z,31.42
2023-01-09T09:47:56.475Z,32.92
2023-01-09T09:50:46.635Z,31.38
2023-01-09T09:53:31.309Z,33.08
2023-01-09T09:56:05.487Z,29.42
2023-01-09T09:58:41.131Z,34.17
2023-01-09T10:01:19.462Z,30.02
2023-01-09T10:03:56.074Z,32.88
2023-01-09T10:06:50.488Z,31.33
2023-01-09T10:09:48.042Z,28.63
2023-01-09T10:12:19.936Z,29.13
2023-01-09T10:14:51.908Z,34.40
2023-01-09T10:17:55.140Z,32.60
2023-01-09T10:20:49.457Z,33.00
2023-01-09T10:23:26.803Z,34.40
2023-01-09T10:26:10.503Z,37.05
2023-01-09T10:29:20.369Z,32.83
2023-01-09T10:31:58.627Z,37.15
2023-01-09T10:34:48.934Z,33.33
2023-01-09T10:37:36.719Z,34.45
2023-01-09T10:40:26.102Z,44.35
2023-01-09T10:43:09.970Z,47.65
2023-01-09T10:45:52.990Z,38.33
2023-01-09T10:48:32.614Z,39.63
2023-01-09T10:51:19.822Z,36.22
2023-01-09T10:53:54.711Z,33.22
2023-01-09T10:56:30.970Z,31.02
2023-01-09T10:59:03.206Z,36.03
2023-01-09T11:01:39.711Z,38.38
2023-01-09T11:04:34.647Z,39.72
2023-01-09T11:07:18.767Z,42.88
2023-01-09T11:09:58.542Z,37.90
2023-01-09T11:12:32.922Z,36.08
2023-01-09T11:15:16.959Z,35.80
2023-01-09T11:17:51.546Z,39.17
2023-01-09T11:20:23.509Z,36.83
2023-01-09T11:22:58.210Z,38.05
2023-01-09T11:25:30.172Z,42.75
2023-01-09T11:28:02.102Z,36.10
2023-01-09T11:30:38.187Z,40.75
2023-01-09T11:33:16.309Z,38.53
2023-01-09T11:35:58.228Z,39.83
2023-01-09T11:38:33.665Z,41.47
2023-01-09T11:41:07.094Z,40.75
2023-01-09T11:43:40.358Z,41.17
2023-01-09T11:46:41.904Z,40.47
2023-01-09T11:49:22.952Z,144.07
2023-01-09T11:52:06.109Z,123.70
2023-01-09T11:54:43.471Z,110.88
2023-01-09T11:57:16.061Z,78.35
2023-01-09T11:59:48.067Z,64.35
2023-01-09T12:02:41.563Z,54.42
2023-01-09T12:05:47.320Z,56.55
2023-01-09T12:08:29.126Z,52.22
2023-01-09T12:11:25.597Z,54.75
2023-01-09T12:14:24.716Z,50.28
2023-01-09T12:17:17.961Z,46.08
2023-01-09T12:20:14.357Z,42.08
2023-01-09T12:23:08.015Z,45.80
2023-01-09T12:26:04.854Z,40.60
2023-01-09T12:28:56.492Z,49.53
2023-01-09T12:31:50.174Z,46.38
2023-01-09T12:34:32.668Z,42.05
2023-01-09T12:37:18.404Z,43.22
2023-01-09T12:40:22.214Z,37.72
2023-01-09T12:43:12.873Z,39.55
2023-01-09T12:45:53.808Z,38.28
2023-01-09T12:48:59.781Z,40.42
2023-01-09T12:51:35.744Z,42.20
2023-01-09T12:54:13.432Z,47.53
2023-01-09T12:57:03.396Z,41.53
2023-01-09T12:59:57.454Z,43.90
2023-01-09T13:02:39.458Z,43.80
2023-01-09T13:05:18.738Z,46.58
2023-01-09T13:08:29.737Z,48.13
2023-01-09T13:14:14.706Z,45.03
2023-01-09T13:16:53.884Z,39.80
2023-01-09T13:19:34.149Z,43.95
2023-01-09T13:22:07.955Z,42.28
2023-01-09T13:24:58.531Z,38.88
2023-01-09T13:27:39.406Z,41.08
2023-01-09T13:33:12.420Z,38.50
2023-01-09T13:35:55.722Z,36.58
2023-01-09T13:38:31.010Z,37.67
2023-01-09T13:41:34.311Z,35.85
2023-01-09T13:44:08.093Z,45.72
2023-01-09T13:46:43.823Z,37.67
2023-01-09T13:50:09.567Z,41.42
2023-01-09T13:52:43.336Z,36.10
2023-01-09T13:55:15.269Z,43.83
2023-01-09T13:58:05.093Z,45.40
2023-01-09T14:00:37.328Z,35.88
2023-01-09T14:03:39.211Z,36.22
2023-01-09T14:06:14.537Z,44.10
2023-01-09T14:08:48.284Z,46.60
2023-01-09T14:11:22.814Z,42.10
2023-01-09T14:14:02.098Z,40.97
2023-01-09T14:16:36.436Z,40.53
2023-01-09T14:19:17.701Z,41.28
2023-01-09T14:21:54.842Z,42.45
2023-01-09T14:24:44.403Z,42.58
2023-01-09T14:27:54.120Z,41.22
2023-01-09T14:30:26.051Z,39.13
2023-01-09T14:33:19.515Z,48.50
2023-01-09T14:36:15.815Z,44.60
2023-01-09T14:39:09.932Z,41.78
2023-01-09T14:42:06.707Z,41.03
2023-01-09T14:44:47.753Z,39.20
2023-01-09T14:47:31.853Z,41.60
2023-01-09T14:50:11.908Z,40.50
2023-01-09T14:52:52.325Z,49.33
2023-01-09T14:55:34.872Z,43.40
2023-01-09T14:58:18.704Z,42.55
2023-01-09T15:01:17.249Z,44.22
2023-01-09T15:03:52.721Z,47.80
2023-01-09T15:06:30.220Z,42.88
2023-01-09T15:09:35.238Z,41.70
2023-01-09T15:12:11.177Z,45.40
2023-01-09T15:14:46.216Z,45.38
2023-01-09T15:17:24.433Z,43.83
2023-01-09T15:19:57.936Z,44.00
2023-01-09T15:22:34.968Z,45.88
2023-01-09T15:25:39.858Z,46.38
2023-01-09T15:28:40.589Z,43.40
2023-01-09T15:31:18.361Z,47.83
2023-01-09T15:33:53.850Z,54.63
2023-01-09T15:36:28.578Z,55.40
2023-01-09T15:39:00.800Z,50.85
2023-01-09T15:41:51.495Z,50.35
2023-01-09T15:44:26.731Z,43.60
2023-01-09T15:47:00.764Z,45.92
2023-01-09T15:49:34.189Z,40.58
2023-01-09T15:52:12.205Z,57.55
2023-01-09T15:54:49.516Z,50.35
2023-01-09T15:57:27.768Z,50.03
2023-01-09T16:00:33.788Z,51.65
2023-01-09T16:03:17.742Z,54.47
2023-01-09T16:05:51.782Z,49.75
2023-01-09T16:08:34.693Z,42.30
2023-01-09T16:11:22.701Z,47.08
2023-01-09T16:13:57.362Z,42.42
2023-01-09T16:16:34.066Z,54.50
2023-01-09T16:19:06.547Z,46.10
2023-01-09T16:21:38.794Z,55.35
2023-01-09T16:24:16.975Z,41.50
2023-01-09T16:26:52.963Z,42.35
2023-01-09T16:29:36.146Z,55.63
2023-01-09T16:32:19.879Z,55.58
2023-01-09T16:34:57.497Z,48.03
2023-01-09T16:37:29.895Z,51.83
2023-01-09T16:40:23.220Z,47.33
2023-01-09T16:43:03.763Z,45.28
2023-01-09T16:45:40.215Z,51.15
2023-01-09T16:48:16.024Z,48.03
2023-01-09T16:50:48.057Z,50.78
2023-01-09T16:53:32.281Z,46.95
2023-01-09T16:56:04.645Z,50.38
2023-01-09T16:58:36.750Z,61.63
2023-01-09T17:01:10.743Z,53.13
2023-01-09T17:03:44.197Z,49.50
2023-01-09T17:06:19.398Z,47.00
2023-01-09T17:08:51.966Z,53.03
2023-01-09T17:11:30.594Z,51.72
2023-01-09T17:14:02.790Z,47.30
2023-01-09T17:16:38.762Z,44.45
2023-01-09T17:19:18.069Z,49.45
2023-01-09T17:21:50.119Z,44.30
2023-01-09T17:24:40.927Z,42.85
2023-01-09T17:30:17.629Z,39.13
2023-01-09T17:32:50.121Z,41.53
2023-01-09T17:35:21.989Z,48.30
2023-01-09T17:37:54.003Z,48.08
2023-01-09T17:40:27.753Z,50.45
2023-01-09T17:42:59.726Z,41.53
2023-01-09T17:45:31.677Z,45.38
2023-01-09T17:48:03.845Z,42.33
2023-01-09T17:50:36.750Z,39.20
2023-01-09T17:53:08.750Z,41.53
2023-01-09T17:55:42.177Z,45.60
2023-01-09T17:58:40.477Z,48.63
2023-01-09T18:01:14.883Z,50.05
2023-01-09T18:03:49.232Z,59.63
2023-01-09T18:06:22.689Z,59.13
2023-01-09T18:08:57.288Z,59.38
2023-01-09T18:11:30.313Z,78.30
2023-01-09T18:14:02.265Z,82.20
2023-01-09T18:16:34.823Z,90.03
2023-01-09T18:19:07.055Z,57.65
2023-01-09T18:21:38.970Z,56.47
2023-01-09T18:24:10.927Z,65.75
2023-01-09T18:26:43.079Z,55.78
2023-01-09T18:29:15.571Z,63.60
2023-01-09T18:31:48.452Z,64.70
2023-01-09T18:34:20.552Z,81.97
2023-01-09T18:36:52.499Z,108.85
2023-01-09T18:39:24.620Z,87.25
2023-01-09T18:41:56.609Z,77.00
2023-01-09T18:44:28.631Z,67.18
2023-01-09T18:47:02.006Z,60.70
2023-01-09T18:49:34.057Z,67.90
2023-01-09T18:52:07.631Z,59.00
2023-01-09T18:54:39.932Z,58.53
2023-01-09T18:57:12.423Z,47.20
2023-01-09T18:59:44.376Z,47.30
2023-01-09T19:02:20.431Z,49.35
2023-01-09T19:04:53.096Z,48.70
2023-01-09T19:07:25.066Z,49.97
2023-01-09T19:09:56.975Z,48.67
2023-01-09T19:12:28.897Z,58.35
2023-01-09T19:15:00.880Z,55.13
2023-01-09T19:17:33.721Z,52.97
2023-01-09T19:20:07.198Z,55.22
2023-01-09T19:22:39.331Z,51.47
2023-01-09T19:25:12.740Z,51.08
2023-01-09T19:27:44.678Z,49.33
2023-01-09T19:30:17.100Z,46.67
2023-01-09T19:32:49.105Z,47.75
2023-01-09T19:35:21.073Z,50.63
2023-01-09T19:37:53.017Z,53.92
2023-01-09T19:40:25.919Z,59.35
2023-01-09T19:42:58.405Z,64.88
2023-01-09T19:45:30.372Z,64.85
2023-01-09T19:48:02.379Z,73.70
2023-01-09T19:50:34.344Z,78.15
2023-01-09T19:53:06.312Z,59.97
2023-01-09T19:55:38.835Z,85.38
2023-01-09T19:58:11.436Z,73.10
2023-01-09T20:00:43.814Z,72.28
2023-01-09T20:03:15.795Z,77.70
2023-01-09T20:05:47.767Z,54.85
2023-01-09T20:08:19.760Z,58.78
2023-01-09T20:10:51.690Z,69.65
2023-01-09T20:13:23.728Z,58.63
2023-01-09T20:15:58.767Z,55.20
2023-01-09T20:18:32.657Z,54.78
2023-01-09T20:21:05.023Z,65.97
2023-01-09T20:23:37.915Z,74.43
2023-01-09T20:26:09.860Z,72.10
2023-01-09T20:28:41.811Z,63.40
2023-01-09T20:31:16.778Z,58.17
2023-01-09T20:33:51.120Z,54.30
2023-01-09T20:36:27.845Z,52.15
2023-01-09T20:39:02.119Z,52.85
2023-01-09T20:41:34.542Z,54.25
2023-01-09T20:44:09.977Z,49.72
2023-01-09T20:46:45.164Z,50.42
2023-01-09T20:49:20.911Z,49.50
2023-01-09T20:51:53.349Z,64.55
2023-01-09T20:54:25.568Z,66.60
2023-01-09T20:56:57.582Z,51.08
2023-01-09T20:59:29.726Z,44.97
2023-01-09T21:02:01.653Z,45.90
2023-01-09T21:04:33.735Z,43.95
2023-01-09T21:07:05.658Z,55.55
2023-01-09T21:09:37.615Z,57.58
2023-01-09T21:12:28.925Z,62.50
2023-01-09T21:15:11.985Z,55.25
2023-01-09T21:17:44.548Z,52.35
2023-01-09T21:20:16.569Z,49.53
2023-01-09T21:22:49.659Z,57.03
2023-01-09T21:25:21.536Z,70.55
2023-01-09T21:27:53.530Z,94.22
2023-01-09T21:30:25.566Z,78.15
2023-01-09T21:32:57.555Z,73.75
2023-01-09T21:35:29.525Z,75.30
2023-01-09T21:38:02.502Z,58.95
2023-01-09T21:40:34.486Z,67.30
2023-01-09T21:43:25.047Z,63.50
2023-01-09T21:46:19.826Z,63.17
2023-01-09T21:48:51.826Z,58.90
2023-01-09T21:51:24.012Z,65.60
2023-01-09T21:53:56.009Z,56.00
2023-01-09T21:56:28.171Z,57.42
2023-01-09T21:59:00.401Z,50.22
2023-01-09T22:01:32.420Z,54.58
2023-01-09T22:04:04.557Z,56.72
2023-01-09T22:06:36.667Z,64.93
2023-01-09T22:09:09.275Z,65.97
2023-01-09T22:11:42.198Z,56.97
2023-01-09T22:14:17.232Z,57.08
2023-01-09T22:16:49.177Z,60.03
2023-01-09T22:19:21.392Z,57.83
2023-01-09T22:21:53.376Z,66.95
2023-01-09T22:24:25.289Z,58.00
2023-01-09T22:26:57.234Z,65.88
2023-01-09T22:29:29.373Z,62.75
2023-01-09T22:32:01.614Z,61.22
2023-01-09T22:34:33.835Z,64.38
2023-01-09T22:37:08.557Z,60.92
2023-01-09T22:39:40.507Z,63.10
2023-01-09T22:42:12.457Z,64.00
2023-01-09T22:44:44.401Z,72.93
2023-01-09T22:47:18.456Z,60.03
2023-01-09T22:49:53.060Z,64.45
2023-01-09T22:52:25.426Z,68.90
2023-01-09T22:54:57.390Z,76.28
2023-01-09T22:57:29.495Z,71.32
2023-01-09T23:00:01.503Z,71.00
2023-01-09T23:02:33.613Z,71.35
2023-01-09T23:05:06.199Z,76.75
2023-01-09T23:07:38.150Z,73.10
2023-01-09T23:10:10.933Z,75.45
2023-01-09T23:12:47.979Z,71.63
2023-01-09T23:15:19.971Z,72.30
2023-01-09T23:17:52.134Z,82.07
2023-01-09T23:20:24.267Z,73.07
2023-01-09T23:22:58.305Z,72.80
2023-01-09T23:25:31.413Z,79.35
2023-01-09T23:28:21.533Z,70.00
2023-01-09T23:31:01.368Z,69.68
2023-01-09T23:33:46.420Z,74.75
2023-01-09T23:36:22.818Z,76.60
2023-01-09T23:38:57.509Z,78.55
2023-01-09T23:41:49.774Z,73.97
2023-01-09T23:44:21.792Z,66.47
2023-01-09T23:46:54.208Z,68.70
2023-01-09T23:49:29.235Z,67.80
2023-01-09T23:52:08.936Z,71.20
2023-01-09T23:54:44.042Z,78.47
2023-01-09T23:57:16.011Z,78.50
2023-01-09T23:59:49.369Z,84.32
